Time,TemperatureF,DewpointF,PressureIn,WindDirection,WindDirectionDegrees,WindSpeedMPH,WindSpeedGustMPH,Humidity,HourlyPrecipIn,Conditions,Clouds,dailyrainin,SoftwareType,DateUTC
2013-05-03 00:03:00,67.0,36.0,-100.00,NW,306,10.0,14.0,32,0.00,,,-99.99,,2013-05-03 04:03:00,
2013-05-03 00:13:00,68.0,37.0,-100.00,WNW,288,9.0,14.0,33,0.00,,,-99.99,,2013-05-03 04:13:00,
2013-05-03 00:23:00,67.0,36.0,-100.00,West,279,10.0,14.0,33,0.00,,,-99.99,,2013-05-03 04:23:00,
2013-05-03 00:32:00,66.0,36.0,-100.00,WNW,295,10.0,14.0,33,0.00,,,-99.99,,2013-05-03 04:32:00,
2013-05-03 00:43:00,66.0,36.0,-100.00,WNW,300,10.0,14.0,33,0.00,,,-99.99,,2013-05-03 04:43:00,
2013-05-03 00:53:00,66.0,36.0,-100.00,WNW,303,11.0,14.0,33,0.00,,,-99.99,,2013-05-03 04:53:00,
2013-05-03 01:02:00,66.0,36.0,-100.00,NW,304,9.0,14.0,33,0.00,,,-99.99,,2013-05-03 05:02:00,
2013-05-03 01:12:00,65.0,34.0,-100.00,NW,310,11.0,14.0,33,0.00,,,-99.99,,2013-05-03 05:12:00,
2013-05-03 01:22:00,65.0,36.0,-100.00,West,279,11.0,14.0,34,0.00,,,-99.99,,2013-05-03 05:22:00,
2013-05-03 01:32:00,65.0,34.0,-100.00,WNW,296,11.0,14.0,33,0.00,,,-99.99,,2013-05-03 05:32:00,
2013-05-03 01:42:00,66.0,36.0,-100.00,NW,307,11.0,14.0,33,0.00,,,-99.99,,2013-05-03 05:42:00,
2013-05-03 01:52:00,65.0,34.0,-100.00,WNW,289,11.0,14.0,33,0.00,,,-99.99,,2013-05-03 05:52:00,
2013-05-03 02:02:00,64.0,34.0,-100.00,WNW,290,11.0,14.0,34,0.00,,,-99.99,,2013-05-03 06:02:00,
2013-05-03 02:12:00,64.0,34.0,-100.00,WNW,297,11.0,14.0,34,0.00,,,-99.99,,2013-05-03 06:12:00,
2013-05-03 02:21:00,62.0,32.0,-100.00,WNW,297,12.0,14.0,33,0.00,,,-99.99,,2013-05-03 06:21:00,
2013-05-03 02:32:00,64.0,34.0,-100.00,WNW,292,10.0,14.0,34,0.00,,,-99.99,,2013-05-03 06:32:00,
2013-05-03 02:42:00,64.0,36.0,-100.00,WNW,292,9.0,14.0,36,0.00,,,-99.99,,2013-05-03 06:42:00,
2013-05-03 02:52:00,63.0,36.0,-100.00,WNW,299,8.0,14.0,37,0.00,,,-99.99,,2013-05-03 06:52:00,
2013-05-03 03:01:00,62.0,34.0,-100.00,WNW,286,7.0,14.0,37,0.00,,,-99.99,,2013-05-03 07:01:00,
2013-05-03 03:11:00,61.0,34.0,-100.00,NW,310,8.0,14.0,38,0.00,,,-99.99,,2013-05-03 07:11:00,
2013-05-03 03:22:00,61.0,34.0,-100.00,West,280,8.0,8.0,38,0.00,,,-99.99,,2013-05-03 07:22:00,
2013-05-03 03:32:00,61.0,34.0,-100.00,WNW,290,8.0,10.0,38,0.00,,,-99.99,,2013-05-03 07:32:00,
2013-05-03 03:42:00,61.0,36.0,-100.00,NW,307,6.0,10.0,42,0.00,,,-99.99,,2013-05-03 07:42:00,
2013-05-03 03:52:00,60.0,36.0,-100.00,NW,321,6.0,10.0,41,0.00,,,-99.99,,2013-05-03 07:52:00,
2013-05-03 04:02:00,60.0,36.0,-100.00,NW,321,7.0,10.0,42,0.00,,,-99.99,,2013-05-03 08:02:00,
2013-05-03 04:12:00,61.0,37.0,-100.00,NW,312,8.0,10.0,42,0.00,,,-99.99,,2013-05-03 08:12:00,
2013-05-03 04:21:00,61.0,37.0,-100.00,WNW,296,7.0,10.0,42,0.00,,,-99.99,,2013-05-03 08:21:00,
2013-05-03 04:32:00,61.0,37.0,-100.00,WNW,297,6.0,10.0,44,0.00,,,-99.99,,2013-05-03 08:32:00,
2013-05-03 04:42:00,59.0,37.0,-100.00,WNW,297,5.0,10.0,45,0.00,,,-99.99,,2013-05-03 08:42:00,
2013-05-03 04:52:00,59.0,37.0,-100.00,WNW,288,4.0,10.0,46,0.00,,,-99.99,,2013-05-03 08:52:00,
2013-05-03 05:01:00,60.0,37.0,-100.00,NW,306,6.0,10.0,46,0.00,,,-99.99,,2013-05-03 09:01:00,
2013-05-03 05:12:00,59.0,37.0,-100.00,WNW,295,4.0,10.0,46,0.00,,,-99.99,,2013-05-03 09:12:00,
2013-05-03 05:21:00,57.0,36.0,-100.00,NW,326,2.0,10.0,47,0.00,,,-99.99,,2013-05-03 09:21:00,
2013-05-03 05:32:00,58.0,37.0,-100.00,WNW,290,4.0,10.0,46,0.00,,,-99.99,,2013-05-03 09:32:00,
2013-05-03 05:42:00,59.0,37.0,-100.00,NW,312,4.0,10.0,47,0.00,,,-99.99,,2013-05-03 09:42:00,
2013-05-03 05:52:00,59.0,39.0,-100.00,NW,310,4.0,10.0,49,0.00,,,-99.99,,2013-05-03 09:52:00,
2013-05-03 06:03:00,57.0,37.0,-100.00,WNW,293,4.0,10.0,50,0.00,,,-99.99,,2013-05-03 10:03:00,
2013-05-03 06:13:00,56.0,37.0,-100.00,WNW,299,4.0,10.0,51,0.00,,,-99.99,,2013-05-03 10:13:00,
2013-05-03 06:22:00,56.0,37.0,-100.00,WNW,282,4.0,10.0,51,0.00,,,-99.99,,2013-05-03 10:22:00,
2013-05-03 06:32:00,56.0,37.0,-100.00,WNW,292,4.0,10.0,51,0.00,,,-99.99,,2013-05-03 10:32:00,
2013-05-03 06:42:00,57.0,37.0,-100.00,West,275,4.0,10.0,51,0.00,,,-99.99,,2013-05-03 10:42:00,
2013-05-03 06:52:00,57.0,39.0,-100.00,West,268,4.0,10.0,53,0.00,,,-99.99,,2013-05-03 10:52:00,
2013-05-03 07:02:00,57.0,39.0,-100.00,West,261,2.0,10.0,54,0.00,,,-99.99,,2013-05-03 11:02:00,
2013-05-03 07:11:00,56.0,39.0,-100.00,West,272,2.0,10.0,54,0.00,,,-99.99,,2013-05-03 11:11:00,
2013-05-03 07:22:00,56.0,39.0,-100.00,West,278,2.0,10.0,56,0.00,,,-99.99,,2013-05-03 11:22:00,
2013-05-03 07:32:00,54.0,37.0,-100.00,West,280,1.0,10.0,55,0.00,,,-99.99,,2013-05-03 11:32:00,
2013-05-03 07:42:00,56.0,39.0,-100.00,NNW,333,2.0,10.0,54,0.00,,,-99.99,,2013-05-03 11:42:00,
2013-05-03 07:52:00,56.0,39.0,-100.00,WNW,299,4.0,10.0,54,0.00,,,-99.99,,2013-05-03 11:52:00,
2013-05-03 08:02:00,59.0,39.0,-100.00,WNW,289,7.0,10.0,50,0.00,,,-99.99,,2013-05-03 12:02:00,
2013-05-03 08:12:00,57.0,39.0,-100.00,NW,321,6.0,10.0,51,0.00,,,-99.99,,2013-05-03 12:12:00,
2013-05-03 08:22:00,59.0,39.0,-100.00,WNW,293,6.0,10.0,50,0.00,,,-99.99,,2013-05-03 12:22:00,
2013-05-03 08:32:00,59.0,39.0,-100.00,WNW,293,7.0,10.0,49,0.00,,,-99.99,,2013-05-03 12:32:00,
2013-05-03 08:42:00,59.0,39.0,-100.00,NW,310,7.0,10.0,49,0.00,,,-99.99,,2013-05-03 12:42:00,
2013-05-03 08:52:00,60.0,41.0,-100.00,WNW,282,6.0,10.0,50,0.00,,,-99.99,,2013-05-03 12:52:00,
2013-05-03 09:01:00,60.0,41.0,-100.00,West,280,6.0,10.0,50,0.00,,,-99.99,,2013-05-03 13:01:00,
2013-05-03 09:11:00,58.0,41.0,-100.00,NW,317,5.0,10.0,53,0.00,,,-99.99,,2013-05-03 13:11:00,
2013-05-03 09:22:00,59.0,36.0,-100.00,NW,321,7.0,10.0,44,0.00,,,-99.99,,2013-05-03 13:22:00,
2013-05-03 09:32:00,62.0,41.0,-100.00,West,279,8.0,10.0,47,0.00,,,-99.99,,2013-05-03 13:32:00,
2013-05-03 09:42:00,63.0,41.0,-100.00,WNW,300,6.0,10.0,45,0.00,,,-99.99,,2013-05-03 13:42:00,
2013-05-03 09:52:00,64.0,41.0,-100.00,North,358,3.0,10.0,45,0.00,,,-99.99,,2013-05-03 13:52:00,
2013-05-03 10:02:00,64.0,39.0,-100.00,WNW,295,6.0,10.0,41,0.00,,,-99.99,,2013-05-03 14:02:00,
2013-05-03 10:11:00,64.0,39.0,-100.00,NNW,344,6.0,10.0,41,0.00,,,-99.99,,2013-05-03 14:11:00,
2013-05-03 10:22:00,64.0,37.0,-100.00,NW,309,7.0,10.0,38,0.00,,,-99.99,,2013-05-03 14:22:00,
2013-05-03 10:32:00,65.0,34.0,-100.00,NW,326,9.0,12.0,33,0.00,,,-99.99,,2013-05-03 14:32:00,
2013-05-03 10:42:00,65.0,36.0,-100.00,NNW,330,9.0,12.0,34,0.00,,,-99.99,,2013-05-03 14:42:00,
2013-05-03 10:52:00,65.0,34.0,-100.00,NNW,330,7.0,12.0,32,0.00,,,-99.99,,2013-05-03 14:52:00,
2013-05-03 11:01:00,67.0,37.0,-100.00,NNW,345,8.0,12.0,34,0.00,,,-99.99,,2013-05-03 15:01:00,
2013-05-03 11:11:00,64.0,36.0,-100.00,WNW,297,8.0,12.0,36,0.00,,,-99.99,,2013-05-03 15:11:00,
2013-05-03 11:22:00,65.0,36.0,-100.00,NNW,345,7.0,12.0,34,0.00,,,-99.99,,2013-05-03 15:22:00,
2013-05-03 11:32:00,69.0,36.0,-100.00,WNW,297,9.0,12.0,31,0.00,,,-99.99,,2013-05-03 15:32:00,
2013-05-03 11:43:00,69.0,37.0,-100.00,NNW,338,9.0,12.0,33,0.00,,,-99.99,,2013-05-03 15:43:00,
2013-05-03 11:53:00,68.0,37.0,-100.00,NNW,336,9.0,12.0,34,0.00,,,-99.99,,2013-05-03 15:53:00,
2013-05-03 12:03:00,68.0,37.0,-100.00,NW,304,7.0,12.0,33,0.00,,,-99.99,,2013-05-03 16:03:00,
2013-05-03 12:13:00,68.0,36.0,-100.00,NW,310,7.0,12.0,31,0.00,,,-99.99,,2013-05-03 16:13:00,
2013-05-03 12:23:00,69.0,36.0,-100.00,WNW,302,9.0,12.0,31,0.00,,,-99.99,,2013-05-03 16:23:00,
2013-05-03 12:33:00,70.0,34.0,-100.00,NW,312,10.0,12.0,28,0.00,,,-99.99,,2013-05-03 16:33:00,
2013-05-03 12:42:00,70.0,34.0,-100.00,NNW,344,10.0,12.0,28,0.00,,,-99.99,,2013-05-03 16:42:00,
2013-05-03 12:52:00,71.0,36.0,-100.00,NW,313,10.0,12.0,29,0.00,,,-99.99,,2013-05-03 16:52:00,
2013-05-03 13:02:00,71.0,36.0,-100.00,NW,319,10.0,12.0,27,0.00,,,-99.99,,2013-05-03 17:02:00,
2013-05-03 13:12:00,70.0,34.0,-100.00,NW,310,10.0,12.0,28,0.00,,,-99.99,,2013-05-03 17:12:00,
2013-05-03 13:23:00,71.0,34.0,-100.00,NNW,348,11.0,14.0,27,0.00,,,-99.99,,2013-05-03 17:23:00,
2013-05-03 13:32:00,72.0,36.0,-100.00,NW,324,9.0,14.0,27,0.00,,,-99.99,,2013-05-03 17:32:00,
2013-05-03 13:42:00,72.0,32.0,-100.00,North,358,10.0,14.0,24,0.00,,,-99.99,,2013-05-03 17:42:00,
2013-05-03 13:52:00,72.0,34.0,-100.00,NNW,327,11.0,14.0,25,0.00,,,-99.99,,2013-05-03 17:52:00,
2013-05-03 14:01:00,73.0,34.0,-100.00,NNW,337,11.0,14.0,25,0.00,,,-99.99,,2013-05-03 18:01:00,
2013-05-03 14:12:00,73.0,37.0,-100.00,NNW,337,11.0,14.0,29,0.00,,,-99.99,,2013-05-03 18:12:00,
2013-05-03 14:22:00,73.0,36.0,-100.00,NW,304,12.0,17.0,27,0.00,,,-99.99,,2013-05-03 18:22:00,
2013-05-03 14:32:00,74.0,37.0,-100.00,WNW,303,12.0,17.0,28,0.00,,,-99.99,,2013-05-03 18:32:00,
2013-05-03 14:42:00,74.0,32.0,-100.00,NNW,338,11.0,17.0,22,0.00,,,-99.99,,2013-05-03 18:42:00,
2013-05-03 14:52:00,75.0,36.0,-100.00,NNW,327,9.0,17.0,25,0.00,,,-99.99,,2013-05-03 18:52:00,
2013-05-03 15:01:00,75.0,34.0,-100.00,NNE,16,11.0,17.0,24,0.00,,,-99.99,,2013-05-03 19:01:00,
2013-05-03 15:11:00,74.0,32.0,-100.00,West,262,9.0,17.0,23,0.00,,,-99.99,,2013-05-03 19:11:00,
2013-05-03 15:21:00,75.0,39.0,-100.00,NNW,341,7.0,17.0,29,0.00,,,-99.99,,2013-05-03 19:21:00,
2013-05-03 15:32:00,75.0,36.0,-100.00,NW,316,11.0,17.0,24,0.00,,,-99.99,,2013-05-03 19:32:00,
2013-05-03 15:42:00,76.0,36.0,-100.00,NNW,345,9.0,17.0,24,0.00,,,-99.99,,2013-05-03 19:42:00,
2013-05-03 15:52:00,76.0,36.0,-100.00,WNW,296,11.0,17.0,25,0.00,,,-99.99,,2013-05-03 19:52:00,
2013-05-03 16:02:00,76.0,36.0,-100.00,NW,312,11.0,17.0,24,0.00,,,-99.99,,2013-05-03 20:02:00,
2013-05-03 16:12:00,76.0,36.0,-100.00,WNW,302,11.0,17.0,24,0.00,,,-99.99,,2013-05-03 20:12:00,
2013-05-03 16:21:00,76.0,36.0,-100.00,NNW,344,11.0,17.0,24,0.00,,,-99.99,,2013-05-03 20:21:00,
2013-05-03 16:32:00,74.0,36.0,-100.00,WNW,286,8.0,17.0,25,0.00,,,-99.99,,2013-05-03 20:32:00,
2013-05-03 16:42:00,74.0,34.0,-100.00,NNW,345,9.0,17.0,24,0.00,,,-99.99,,2013-05-03 20:42:00,
2013-05-03 16:52:00,74.0,34.0,-100.00,North,7,8.0,17.0,24,0.00,,,-99.99,,2013-05-03 20:52:00,
2013-05-03 17:01:00,74.0,32.0,-100.00,NW,324,10.0,17.0,23,0.00,,,-99.99,,2013-05-03 21:01:00,
2013-05-03 17:11:00,75.0,36.0,-100.00,NW,312,7.0,17.0,24,0.00,,,-99.99,,2013-05-03 21:11:00,
2013-05-03 17:22:00,75.0,36.0,-100.00,NNE,29,8.0,17.0,25,0.00,,,-99.99,,2013-05-03 21:22:00,
2013-05-03 17:33:00,75.0,32.0,-100.00,NW,307,9.0,17.0,22,0.00,,,-99.99,,2013-05-03 21:33:00,
2013-05-03 17:42:00,75.0,32.0,-100.00,NW,306,12.0,17.0,22,0.00,,,-99.99,,2013-05-03 21:42:00,
2013-05-03 17:52:00,76.0,34.0,-100.00,North,350,9.0,17.0,23,0.00,,,-99.99,,2013-05-03 21:52:00,
2013-05-03 18:03:00,76.0,34.0,-100.00,WNW,297,9.0,17.0,22,0.00,,,-99.99,,2013-05-03 22:03:00,
2013-05-03 18:13:00,76.0,34.0,-100.00,NW,306,11.0,17.0,23,0.00,,,-99.99,,2013-05-03 22:13:00,
2013-05-03 18:22:00,76.0,34.0,-100.00,NW,324,8.0,17.0,23,0.00,,,-99.99,,2013-05-03 22:22:00,
2013-05-03 18:32:00,75.0,36.0,-100.00,NW,323,10.0,17.0,24,0.00,,,-99.99,,2013-05-03 22:32:00,
2013-05-03 18:42:00,76.0,36.0,-100.00,WNW,299,8.0,17.0,24,0.00,,,-99.99,,2013-05-03 22:42:00,
2013-05-03 18:52:00,75.0,37.0,-100.00,NW,306,10.0,17.0,27,0.00,,,-99.99,,2013-05-03 22:52:00,
2013-05-03 19:02:00,75.0,36.0,-100.00,NW,310,8.0,17.0,25,0.00,,,-99.99,,2013-05-03 23:02:00,
2013-05-03 19:11:00,75.0,36.0,-100.00,WNW,300,9.0,17.0,25,0.00,,,-99.99,,2013-05-03 23:11:00,
2013-05-03 19:22:00,75.0,37.0,-100.00,NW,310,8.0,17.0,27,0.00,,,-99.99,,2013-05-03 23:22:00,
2013-05-03 19:32:00,74.0,37.0,-100.00,WNW,299,8.0,17.0,27,0.00,,,-99.99,,2013-05-03 23:32:00,
2013-05-03 19:41:00,75.0,36.0,-100.00,WNW,296,7.0,17.0,25,0.00,,,-99.99,,2013-05-03 23:41:00,
2013-05-03 19:52:00,74.0,34.0,-100.00,NNW,327,7.0,17.0,24,0.00,,,-99.99,,2013-05-03 23:52:00,
2013-05-03 20:01:00,74.0,37.0,-100.00,WNW,303,7.0,17.0,27,0.00,,,-99.99,,2013-05-04 00:01:00,
2013-05-03 20:11:00,74.0,37.0,-100.00,WNW,286,9.0,17.0,28,0.00,,,-99.99,,2013-05-04 00:11:00,
2013-05-03 20:23:00,73.0,37.0,-100.00,NW,304,8.0,17.0,28,0.00,,,-99.99,,2013-05-04 00:23:00,
2013-05-03 20:32:00,72.0,39.0,-100.00,WNW,295,10.0,17.0,31,0.00,,,-99.99,,2013-05-04 00:32:00,
2013-05-03 20:42:00,71.0,39.0,-100.00,West,275,11.0,17.0,33,0.00,,,-99.99,,2013-05-04 00:42:00,
2013-05-03 20:52:00,70.0,39.0,-100.00,West,280,12.0,17.0,33,0.00,,,-99.99,,2013-05-04 00:52:00,
2013-05-03 21:01:00,69.0,37.0,-100.00,WNW,288,11.0,17.0,33,0.00,,,-99.99,,2013-05-04 01:01:00,
2013-05-03 21:11:00,69.0,39.0,-100.00,WNW,296,12.0,17.0,34,0.00,,,-99.99,,2013-05-04 01:11:00,
2013-05-03 21:21:00,69.0,39.0,-100.00,WNW,285,12.0,17.0,36,0.00,,,-99.99,,2013-05-04 01:21:00,
2013-05-03 21:32:00,68.0,39.0,-100.00,NW,309,11.0,17.0,36,0.00,,,-99.99,,2013-05-04 01:32:00,
2013-05-03 21:42:00,69.0,39.0,-100.00,NW,320,12.0,17.0,36,0.00,,,-99.99,,2013-05-04 01:42:00,
2013-05-03 21:52:00,68.0,39.0,-100.00,WNW,302,14.0,17.0,36,0.00,,,-99.99,,2013-05-04 01:52:00,
2013-05-03 22:02:00,67.0,39.0,-100.00,WNW,296,13.0,17.0,36,0.00,,,-99.99,,2013-05-04 02:02:00,
2013-05-03 22:11:00,67.0,39.0,-100.00,WNW,297,13.0,17.0,37,0.00,,,-99.99,,2013-05-04 02:11:00,
2013-05-03 22:21:00,66.0,39.0,-100.00,WNW,303,10.0,17.0,38,0.00,,,-99.99,,2013-05-04 02:21:00,
2013-05-03 22:32:00,67.0,39.0,-100.00,NW,319,10.0,17.0,38,0.00,,,-99.99,,2013-05-04 02:32:00,
2013-05-03 22:42:00,66.0,39.0,-100.00,WNW,293,11.0,17.0,40,0.00,,,-99.99,,2013-05-04 02:42:00,
2013-05-03 22:52:00,67.0,39.0,-100.00,NW,313,11.0,17.0,37,0.00,,,-99.99,,2013-05-04 02:52:00,
2013-05-03 23:02:00,66.0,39.0,-100.00,NW,314,11.0,17.0,38,0.00,,,-99.99,,2013-05-04 03:02:00,
2013-05-03 23:11:00,65.0,39.0,-100.00,NW,313,10.0,17.0,41,0.00,,,-99.99,,2013-05-04 03:11:00,
2013-05-03 23:22:00,65.0,39.0,-100.00,NW,316,11.0,17.0,40,0.00,,,-99.99,,2013-05-04 03:22:00,
2013-05-03 23:33:00,65.0,39.0,-100.00,WNW,293,12.0,17.0,40,0.00,,,-99.99,,2013-05-04 03:33:00,
2013-05-03 23:43:00,65.0,39.0,-100.00,NW,304,13.0,17.0,42,0.00,,,-99.99,,2013-05-04 03:43:00,
2013-05-03 23:52:00,64.0,41.0,-100.00,WNW,290,11.0,17.0,44,0.00,,,-99.99,,2013-05-04 03:52:00,